createdAt,value
2022-10-13T00:00:34.611Z,3.53
2022-10-13T00:03:22.739Z,3.52
2022-10-13T00:06:11.857Z,3.57
2022-10-13T00:09:00.297Z,3.66
2022-10-13T00:11:46.855Z,3.68
2022-10-13T00:14:33.580Z,3.63
2022-10-13T00:17:20.313Z,3.54
2022-10-13T00:20:10.274Z,3.48
2022-10-13T00:22:57.020Z,3.44
2022-10-13T00:25:44.567Z,3.37
2022-10-13T00:28:31.160Z,3.35
2022-10-13T00:31:19.529Z,3.38
2022-10-13T00:34:06.312Z,3.39
2022-10-13T00:36:54.551Z,3.32
2022-10-13T00:39:41.482Z,3.26
2022-10-13T00:42:28.406Z,3.24
2022-10-13T00:45:24.896Z,3.20
2022-10-13T00:48:11.399Z,3.20
2022-10-13T00:50:59.819Z,3.18
2022-10-13T00:53:48.709Z,3.22
2022-10-13T00:56:38.485Z,3.24
2022-10-13T00:59:29.300Z,3.33
2022-10-13T01:02:17.148Z,3.32
2022-10-13T01:05:05.126Z,3.37
2022-10-13T01:07:52.672Z,3.27
2022-10-13T01:10:54.182Z,3.21
2022-10-13T01:13:49.282Z,3.11
2022-10-13T01:16:50.100Z,3.08
2022-10-13T01:19:58.427Z,3.03
2022-10-13T01:23:01.456Z,3.00
2022-10-13T01:26:18.453Z,2.93
2022-10-13T01:29:22.767Z,2.94
2022-10-13T01:32:20.993Z,2.92
2022-10-13T01:35:13.290Z,3.02
2022-10-13T01:38:08.956Z,3.04
2022-10-13T01:41:01.922Z,3.06
2022-10-13T01:43:55.061Z,2.99
2022-10-13T01:46:42.757Z,2.94
2022-10-13T01:49:34.689Z,2.85
2022-10-13T01:52:24.098Z,2.82
2022-10-13T01:55:13.499Z,2.78
2022-10-13T01:58:00.507Z,2.80
2022-10-13T02:01:01.701Z,2.80
2022-10-13T02:03:58.968Z,2.78
2022-10-13T02:06:53.047Z,2.78
2022-10-13T02:09:49.780Z,2.75
2022-10-13T02:12:40.579Z,2.70
2022-10-13T02:15:32.354Z,2.71
2022-10-13T02:18:25.179Z,2.73
2022-10-13T02:21:11.997Z,2.70
2022-10-13T02:24:00.428Z,2.66
2022-10-13T02:26:47.309Z,2.62
2022-10-13T02:29:33.782Z,2.64
2022-10-13T02:32:21.168Z,2.62
2022-10-13T02:35:09.421Z,2.59
2022-10-13T02:37:56.265Z,2.59
2022-10-13T02:40:44.335Z,2.56
2022-10-13T02:43:33.982Z,2.59
2022-10-13T02:46:20.860Z,2.59
2022-10-13T02:49:07.673Z,2.61
2022-10-13T02:51:54.498Z,2.61
2022-10-13T02:54:41.378Z,2.64
2022-10-13T02:57:29.807Z,2.66
2022-10-13T03:00:17.860Z,2.67
2022-10-13T03:03:04.623Z,2.62
2022-10-13T03:05:51.598Z,2.63
2022-10-13T03:08:40.841Z,2.63
2022-10-13T03:11:27.812Z,2.62
2022-10-13T03:14:15.808Z,2.65
2022-10-13T03:17:02.593Z,2.64
2022-10-13T03:19:49.009Z,2.66
2022-10-13T03:22:37.757Z,2.72
2022-10-13T03:25:24.640Z,2.77
2022-10-13T03:28:11.361Z,2.80
2022-10-13T03:31:03.858Z,2.73
2022-10-13T03:33:51.378Z,2.81
2022-10-13T03:36:37.933Z,2.84
2022-10-13T03:39:25.027Z,2.88
2022-10-13T03:42:11.622Z,2.88
2022-10-13T03:44:59.188Z,2.94
2022-10-13T03:47:47.393Z,2.97
2022-10-13T03:50:34.007Z,2.96
2022-10-13T03:53:21.297Z,3.09
2022-10-13T03:56:08.958Z,3.12
2022-10-13T03:59:05.161Z,3.21
2022-10-13T04:01:52.007Z,3.26
2022-10-13T04:04:40.125Z,3.25
2022-10-13T04:07:26.831Z,3.18
2022-10-13T04:10:13.785Z,3.13
2022-10-13T04:13:01.067Z,3.11
2022-10-13T04:15:47.752Z,3.12
2022-10-13T04:18:35.430Z,3.13
2022-10-13T04:21:24.673Z,3.14
2022-10-13T04:24:13.745Z,2.88
2022-10-13T04:27:00.457Z,3.20
2022-10-13T04:29:47.727Z,3.29
2022-10-13T04:32:34.720Z,3.37
2022-10-13T04:35:22.181Z,3.43
2022-10-13T04:38:10.464Z,3.48
2022-10-13T04:40:57.177Z,3.48
2022-10-13T04:43:49.169Z,3.60
2022-10-13T04:46:36.523Z,3.69
2022-10-13T04:49:23.184Z,3.76
2022-10-13T04:52:10.009Z,3.82
2022-10-13T04:54:58.286Z,3.87
2022-10-13T04:57:45.050Z,3.94
2022-10-13T05:00:40.228Z,4.00
2022-10-13T05:03:29.268Z,4.10
2022-10-13T05:06:17.516Z,4.12
2022-10-13T05:09:07.532Z,4.13
2022-10-13T05:11:55.797Z,4.15
2022-10-13T05:14:42.481Z,4.28
2022-10-13T05:17:35.053Z,4.27
2022-10-13T05:20:25.740Z,4.33
2022-10-13T05:23:12.593Z,4.40
2022-10-13T05:26:02.642Z,4.48
2022-10-13T05:28:50.702Z,4.54
2022-10-13T05:31:37.296Z,4.59
2022-10-13T05:34:23.764Z,4.71
2022-10-13T05:37:11.718Z,4.76
2022-10-13T05:39:59.760Z,4.86
2022-10-13T05:42:46.512Z,4.91
2022-10-13T05:45:34.733Z,4.98
2022-10-13T05:48:21.292Z,5.11
2022-10-13T05:51:12.816Z,5.22
2022-10-13T05:54:03.655Z,5.21
2022-10-13T05:56:55.208Z,5.42
2022-10-13T05:59:45.299Z,5.51
2022-10-13T06:02:40.921Z,5.66
2022-10-13T06:05:29.198Z,5.78
2022-10-13T06:08:16.243Z,6.01
2022-10-13T06:11:04.825Z,6.20
2022-10-13T06:13:51.542Z,6.29
2022-10-13T06:16:38.325Z,6.38
2022-10-13T06:19:26.532Z,6.52
2022-10-13T06:22:13.197Z,6.74
2022-10-13T06:24:59.997Z,6.82
2022-10-13T06:27:46.870Z,6.95
2022-10-13T06:30:33.872Z,7.01
2022-10-13T06:33:20.775Z,7.05
2022-10-13T06:36:09.798Z,7.05
2022-10-13T06:38:56.446Z,7.09
2022-10-13T06:41:43.972Z,7.11
2022-10-13T06:44:31.792Z,7.07
2022-10-13T06:47:21.233Z,7.19
2022-10-13T06:50:08.539Z,7.11
2022-10-13T06:52:57.818Z,7.15
2022-10-13T06:55:45.545Z,7.12
2022-10-13T06:58:35.853Z,7.17
2022-10-13T07:01:22.785Z,7.20
2022-10-13T07:04:09.384Z,7.19
2022-10-13T07:06:56.036Z,7.23
2022-10-13T07:09:44.152Z,7.27
2022-10-13T07:12:30.979Z,7.28
2022-10-13T07:15:18.050Z,7.32
2022-10-13T07:18:05.871Z,7.39
2022-10-13T07:20:52.801Z,7.49
2022-10-13T07:23:39.832Z,7.48
2022-10-13T07:26:28.005Z,7.56
2022-10-13T07:29:14.780Z,7.58
2022-10-13T07:32:01.575Z,7.69
2022-10-13T07:34:48.538Z,7.55
2022-10-13T07:37:35.043Z,7.64
2022-10-13T07:40:21.878Z,7.56
2022-10-13T07:43:10.177Z,7.75
2022-10-13T07:45:59.142Z,8.01
2022-10-13T07:48:47.191Z,8.25
2022-10-13T07:51:33.889Z,8.42
2022-10-13T07:54:23.809Z,8.46
2022-10-13T07:57:15.366Z,8.68
2022-10-13T08:00:03.677Z,9.03
2022-10-13T08:02:58.758Z,9.24
2022-10-13T08:05:45.460Z,9.35
2022-10-13T08:08:33.129Z,9.62
2022-10-13T08:11:20.080Z,9.78
2022-10-13T08:14:06.529Z,10.01
2022-10-13T08:16:54.715Z,10.08
2022-10-13T08:19:41.538Z,10.20
2022-10-13T08:22:28.722Z,10.46
2022-10-13T08:25:15.332Z,10.62
2022-10-13T08:28:02.243Z,10.85
2022-10-13T08:30:50.597Z,10.89
2022-10-13T08:33:38.661Z,11.06
2022-10-13T08:36:26.155Z,11.19
2022-10-13T08:39:14.191Z,11.22
2022-10-13T08:42:01.768Z,11.13
2022-10-13T08:45:28.394Z,11.19
2022-10-13T08:48:03.972Z,11.41
2022-10-13T08:50:56.048Z,11.40
2022-10-13T08:53:44.957Z,11.55
2022-10-13T08:56:34.723Z,11.46
2022-10-13T08:59:22.125Z,11.43
2022-10-13T09:02:15.413Z,11.41
2022-10-13T09:05:04.494Z,11.30
2022-10-13T09:10:50.469Z,11.20
2022-10-13T09:13:38.667Z,11.21
2022-10-13T09:16:30.666Z,11.36
2022-10-13T09:19:23.882Z,11.66
2022-10-13T09:22:23.122Z,11.86
2022-10-13T09:25:20.020Z,12.04
2022-10-13T09:28:15.480Z,12.17
2022-10-13T09:31:04.978Z,12.41
2022-10-13T09:34:00.633Z,12.57
2022-10-13T09:36:57.836Z,12.69
2022-10-13T09:39:44.661Z,12.76
2022-10-13T09:42:33.164Z,12.78
2022-10-13T09:45:23.343Z,12.89
2022-10-13T09:48:20.432Z,12.96
2022-10-13T09:51:07.118Z,13.12
2022-10-13T09:53:53.797Z,13.19
2022-10-13T09:56:44.888Z,13.30
2022-10-13T09:59:36.518Z,13.29
2022-10-13T10:02:33.339Z,13.38
2022-10-13T10:05:25.205Z,13.55
2022-10-13T10:08:25.366Z,13.58
2022-10-13T10:11:28.657Z,13.69
2022-10-13T10:14:20.825Z,13.70
2022-10-13T10:17:21.681Z,13.80
2022-10-13T10:20:30.166Z,13.82
2022-10-13T10:23:23.068Z,13.87
2022-10-13T10:26:22.138Z,14.06
2022-10-13T10:29:31.568Z,13.99
2022-10-13T10:32:29.958Z,14.02
2022-10-13T10:35:22.753Z,13.85
2022-10-13T10:38:23.696Z,13.94
2022-10-13T10:41:17.689Z,14.06
2022-10-13T10:44:09.683Z,14.11
2022-10-13T10:47:02.658Z,14.15
2022-10-13T10:49:52.445Z,14.03
2022-10-13T10:52:50.387Z,14.10
2022-10-13T10:55:48.524Z,14.10
2022-10-13T10:58:43.285Z,14.18
2022-10-13T11:01:38.644Z,14.32
2022-10-13T11:04:41.750Z,14.43
2022-10-13T11:07:58.985Z,14.58
2022-10-13T11:10:45.777Z,14.73
2022-10-13T11:13:52.978Z,14.89
2022-10-13T11:16:42.090Z,15.02
2022-10-13T11:19:34.480Z,15.18
2022-10-13T11:22:23.967Z,15.35
2022-10-13T11:25:39.578Z,15.43
2022-10-13T11:28:47.576Z,15.56
2022-10-13T11:31:50.367Z,15.17
2022-10-13T11:34:37.056Z,15.25
2022-10-13T11:37:32.054Z,15.27
2022-10-13T11:40:26.143Z,15.35
2022-10-13T11:43:34.945Z,15.32
2022-10-13T11:46:39.165Z,15.28
2022-10-13T11:50:03.649Z,15.34
2022-10-13T11:53:05.766Z,15.46
2022-10-13T11:55:54.511Z,15.36
2022-10-13T11:58:43.576Z,15.23
2022-10-13T12:01:30.505Z,15.31
2022-10-13T12:04:17.400Z,15.49
2022-10-13T12:07:06.705Z,15.50
2022-10-13T12:09:56.170Z,15.41
2022-10-13T12:12:47.788Z,15.44
2022-10-13T12:15:37.928Z,15.43
2022-10-13T12:18:27.724Z,15.28
2022-10-13T12:21:19.912Z,15.41
2022-10-13T12:24:09.740Z,15.20
2022-10-13T12:26:57.604Z,15.24
2022-10-13T12:29:44.617Z,15.47
2022-10-13T12:32:36.045Z,15.49
2022-10-13T12:35:25.148Z,15.42
2022-10-13T12:38:19.302Z,15.55
2022-10-13T12:41:07.288Z,15.62
2022-10-13T12:43:54.956Z,15.81
2022-10-13T12:46:44.243Z,15.76
2022-10-13T12:49:33.971Z,15.92
2022-10-13T12:52:25.774Z,16.00
2022-10-13T12:55:20.471Z,16.14
2022-10-13T12:58:07.284Z,16.17
2022-10-13T13:01:02.178Z,16.10
2022-10-13T13:03:56.087Z,16.15
2022-10-13T13:06:53.837Z,16.07
2022-10-13T13:09:42.022Z,15.98
2022-10-13T13:12:29.812Z,15.84
2022-10-13T13:15:32.960Z,15.67
2022-10-13T13:18:36.841Z,15.53
2022-10-13T13:21:23.285Z,15.44
2022-10-13T13:24:21.932Z,15.56
2022-10-13T13:27:19.512Z,15.44
2022-10-13T13:30:12.497Z,15.36
2022-10-13T13:32:59.509Z,15.35
2022-10-13T13:35:48.532Z,15.22
2022-10-13T13:38:35.264Z,15.27
2022-10-13T13:41:27.801Z,15.16
2022-10-13T13:44:14.847Z,15.18
2022-10-13T13:47:01.686Z,15.25
2022-10-13T13:49:49.780Z,15.09
2022-10-13T13:52:36.496Z,14.91
2022-10-13T13:55:23.627Z,14.89
2022-10-13T13:58:11.589Z,14.94
2022-10-13T14:00:57.961Z,15.09
2022-10-13T14:03:45.371Z,15.10
2022-10-13T14:06:34.884Z,15.06
2022-10-13T14:09:21.758Z,15.13
2022-10-13T14:12:08.512Z,15.07
2022-10-13T14:14:56.981Z,15.11
2022-10-13T14:17:43.781Z,15.05
2022-10-13T14:20:30.168Z,15.04
2022-10-13T14:23:16.870Z,15.02
2022-10-13T14:26:07.935Z,14.97
2022-10-13T14:28:54.646Z,15.00
2022-10-13T14:31:42.750Z,14.98
2022-10-13T14:34:29.441Z,15.11
2022-10-13T14:37:18.862Z,15.01
2022-10-13T14:40:08.516Z,15.08
2022-10-13T14:42:55.253Z,14.81
2022-10-13T14:45:41.945Z,15.00
2022-10-13T14:48:33.398Z,15.26
2022-10-13T14:51:19.937Z,15.03
2022-10-13T14:54:07.134Z,15.03
2022-10-13T14:56:53.994Z,15.03
2022-10-13T14:59:40.737Z,14.95
2022-10-13T15:02:27.571Z,14.82
2022-10-13T15:05:15.685Z,14.76
2022-10-13T15:08:02.360Z,14.63
2022-10-13T15:10:48.787Z,14.65
2022-10-13T15:13:35.548Z,14.73
2022-10-13T15:16:24.568Z,14.50
2022-10-13T15:19:11.496Z,14.52
2022-10-13T15:21:59.380Z,14.50
2022-10-13T15:24:46.233Z,14.37
2022-10-13T15:27:34.305Z,14.31
2022-10-13T15:30:23.557Z,14.25
2022-10-13T15:33:10.248Z,14.13
2022-10-13T15:35:58.354Z,13.97
2022-10-13T15:38:46.483Z,13.86
2022-10-13T15:41:33.131Z,13.73
2022-10-13T15:44:21.192Z,13.57
2022-10-13T15:47:08.905Z,13.44
2022-10-13T15:49:56.889Z,13.19
2022-10-13T15:52:43.827Z,13.15
2022-10-13T15:55:31.911Z,13.00
2022-10-13T15:58:19.508Z,12.88
2022-10-13T16:01:08.996Z,12.73
2022-10-13T16:03:56.211Z,12.58
2022-10-13T16:06:42.582Z,12.46
2022-10-13T16:09:29.582Z,12.34
2022-10-13T16:12:18.234Z,12.26
2022-10-13T16:15:05.252Z,12.15
2022-10-13T16:17:52.861Z,12.12
2022-10-13T16:20:45.321Z,12.03
2022-10-13T16:23:32.181Z,11.96
2022-10-13T16:26:19.793Z,11.94
2022-10-13T16:29:07.693Z,11.89
2022-10-13T16:31:55.009Z,11.66
2022-10-13T16:34:41.926Z,11.64
2022-10-13T16:37:29.209Z,11.51
2022-10-13T16:40:16.113Z,11.49
2022-10-13T16:43:02.708Z,11.54
2022-10-13T16:46:00.112Z,11.63
2022-10-13T16:48:48.789Z,11.50
2022-10-13T16:51:35.777Z,11.39
2022-10-13T16:54:22.564Z,11.26
2022-10-13T16:57:10.355Z,11.20
2022-10-13T16:59:56.966Z,11.16
2022-10-13T17:02:49.247Z,11.09
2022-10-13T17:05:35.821Z,11.04
2022-10-13T17:08:22.603Z,10.96
2022-10-13T17:11:17.689Z,10.86
2022-10-13T17:14:05.643Z,10.77
2022-10-13T17:16:57.377Z,10.72
2022-10-13T17:19:45.949Z,10.66
2022-10-13T17:22:32.882Z,10.65
2022-10-13T17:25:19.549Z,10.61
2022-10-13T17:28:06.387Z,10.61
2022-10-13T17:31:00.574Z,10.58
2022-10-13T17:33:48.098Z,10.57
2022-10-13T17:36:36.844Z,10.49
2022-10-13T17:39:29.437Z,10.40
2022-10-13T17:42:16.378Z,10.34
2022-10-13T17:45:03.275Z,10.24
2022-10-13T17:47:50.518Z,10.13
2022-10-13T17:50:38.154Z,10.10
2022-10-13T17:53:26.301Z,10.00
2022-10-13T17:56:15.564Z,9.96
2022-10-13T17:59:02.447Z,9.93
2022-10-13T18:01:50.176Z,9.90
2022-10-13T18:04:37.234Z,9.85
2022-10-13T18:07:23.873Z,9.73
2022-10-13T18:10:13.004Z,9.69
2022-10-13T18:13:00.010Z,9.62
2022-10-13T18:15:46.926Z,9.59
2022-10-13T18:18:34.174Z,9.54
2022-10-13T18:21:24.130Z,9.58
2022-10-13T18:24:12.264Z,9.52
2022-10-13T18:27:00.349Z,9.42
2022-10-13T18:29:48.317Z,9.34
2022-10-13T18:32:35.212Z,9.30
2022-10-13T18:35:22.010Z,9.22
2022-10-13T18:38:08.789Z,9.14
2022-10-13T18:41:01.051Z,9.09
2022-10-13T18:43:50.978Z,9.03
2022-10-13T18:46:39.257Z,8.96
2022-10-13T18:49:31.198Z,8.95
2022-10-13T18:52:17.997Z,8.88
2022-10-13T18:55:05.148Z,8.75
2022-10-13T18:57:52.683Z,8.73
2022-10-13T19:00:41.464Z,8.72
2022-10-13T19:03:28.374Z,8.61
2022-10-13T19:06:17.289Z,8.56
2022-10-13T19:09:08.602Z,8.57
2022-10-13T19:11:56.674Z,8.57
2022-10-13T19:14:45.147Z,8.56
2022-10-13T19:17:33.643Z,8.52
2022-10-13T19:20:20.777Z,8.56
2022-10-13T19:23:09.909Z,8.57
2022-10-13T19:25:56.996Z,8.59
2022-10-13T19:28:44.395Z,8.40
2022-10-13T19:31:34.188Z,8.44
2022-10-13T19:34:27.985Z,8.41
2022-10-13T19:37:16.504Z,8.32
2022-10-13T19:40:04.603Z,8.30
2022-10-13T19:42:52.209Z,8.21
2022-10-13T19:45:46.657Z,8.26
2022-10-13T19:48:34.877Z,8.12
2022-10-13T19:51:22.979Z,8.27
2022-10-13T19:54:11.163Z,8.25
2022-10-13T19:56:59.191Z,8.20
2022-10-13T19:59:47.795Z,8.18
2022-10-13T20:02:34.858Z,8.11
2022-10-13T20:05:25.387Z,8.08
2022-10-13T20:08:13.956Z,8.02
2022-10-13T20:11:07.271Z,7.97
2022-10-13T20:13:54.317Z,7.92
2022-10-13T20:16:40.816Z,7.82
2022-10-13T20:19:27.532Z,7.76
2022-10-13T20:22:14.320Z,7.71
2022-10-13T20:25:02.260Z,7.66
2022-10-13T20:27:49.946Z,7.65
2022-10-13T20:30:40.315Z,7.57
2022-10-13T20:33:27.189Z,7.52
2022-10-13T20:36:15.600Z,7.41
2022-10-13T20:39:03.096Z,7.48
2022-10-13T20:41:52.169Z,7.42
2022-10-13T20:44:39.628Z,7.36
2022-10-13T20:47:26.163Z,7.31
2022-10-13T20:50:12.896Z,7.30
2022-10-13T20:52:59.738Z,7.28
2022-10-13T20:55:55.597Z,7.25
2022-10-13T20:58:44.009Z,7.21
2022-10-13T21:01:30.933Z,7.21
2022-10-13T21:04:17.444Z,7.18
2022-10-13T21:07:04.356Z,7.15
2022-10-13T21:09:53.779Z,7.13
2022-10-13T21:12:40.683Z,7.12
2022-10-13T21:15:29.139Z,7.07
2022-10-13T21:18:16.776Z,7.06
2022-10-13T21:21:04.393Z,7.04
2022-10-13T21:23:51.451Z,7.08
2022-10-13T21:26:38.800Z,7.10
2022-10-13T21:29:25.737Z,7.09
2022-10-13T21:32:13.560Z,7.11
2022-10-13T21:35:04.021Z,7.13
2022-10-13T21:37:51.190Z,7.15
2022-10-13T21:40:39.098Z,7.18
2022-10-13T21:43:26.450Z,7.19
2022-10-13T21:46:14.378Z,7.20
2022-10-13T21:49:07.007Z,7.26
2022-10-13T21:51:54.329Z,7.32
2022-10-13T21:54:41.406Z,7.37
2022-10-13T21:57:27.900Z,7.44
2022-10-13T22:00:15.460Z,7.40
2022-10-13T22:03:02.283Z,7.41
2022-10-13T22:05:50.343Z,7.39
2022-10-13T22:08:39.105Z,7.40
2022-10-13T22:11:36.984Z,7.35
2022-10-13T22:14:30.261Z,7.27
2022-10-13T22:17:16.766Z,7.37
2022-10-13T22:20:03.461Z,7.37
2022-10-13T22:22:51.628Z,7.36
2022-10-13T22:25:44.698Z,7.31
2022-10-13T22:28:37.022Z,7.27
2022-10-13T22:31:24.608Z,7.33
2022-10-13T22:34:13.037Z,7.31
2022-10-13T22:36:59.893Z,7.27
2022-10-13T22:39:49.065Z,7.24
2022-10-13T22:42:35.758Z,7.26
2022-10-13T22:45:22.457Z,7.26
2022-10-13T22:48:12.185Z,7.28
2022-10-13T22:50:58.862Z,7.33
2022-10-13T22:53:49.662Z,7.35
2022-10-13T22:56:37.670Z,7.38
2022-10-13T22:59:24.657Z,7.40
2022-10-13T23:02:11.404Z,7.48
2022-10-13T23:04:58.785Z,7.27
2022-10-13T23:07:45.868Z,7.53
2022-10-13T23:10:32.627Z,7.55
2022-10-13T23:13:20.779Z,7.55
2022-10-13T23:16:10.776Z,7.55
2022-10-13T23:18:57.844Z,7.62
2022-10-13T23:21:44.246Z,7.64
2022-10-13T23:24:31.207Z,7.62
2022-10-13T23:27:20.660Z,7.60
2022-10-13T23:30:11.959Z,7.53
2022-10-13T23:32:58.566Z,7.47
2022-10-13T23:35:45.337Z,7.41
2022-10-13T23:38:34.450Z,7.38
2022-10-13T23:41:22.290Z,7.38
2022-10-13T23:44:08.884Z,7.36
2022-10-13T23:46:57.260Z,7.36
2022-10-13T23:49:43.635Z,7.42
2022-10-13T23:52:30.461Z,7.36
2022-10-13T23:55:17.324Z,7.34
2022-10-13T23:58:04.285Z,7.31
